Time,TemperatureF,DewpointF,PressureIn,WindDirection,WindDirectionDegrees,WindSpeedMPH,WindSpeedGustMPH,Humidity,HourlyPrecipIn,Conditions,Clouds,dailyrainin,SoftwareType,DateUTC
2013-01-11 00:00:00,28.0,20.5,30.48,NNE,22,1.0,2.0,73,0.00,,,-99.99,WeatherLink 6.0.2,2013-01-11 05:00:00,
2013-01-11 00:05:00,28.8,20.9,30.50,NNE,28,0.0,0.0,72,0.00,,,0.00,Wunderground v.1.13,2013-01-11 05:05:00,
2013-01-11 00:10:00,28.7,20.8,30.50,NNE,28,0.0,0.0,72,0.00,,,0.00,Wunderground v.1.13,2013-01-11 05:10:00,
2013-01-11 00:15:00,28.5,20.6,30.50,NNE,28,0.0,0.0,72,0.00,,,0.00,Wunderground v.1.13,2013-01-11 05:15:00,
2013-01-11 00:20:00,28.4,20.5,30.50,NNE,28,0.0,0.0,72,0.00,,,0.00,Wunderground v.1.13,2013-01-11 05:20:00,
2013-01-11 00:25:00,28.1,20.6,30.50,NNE,28,0.0,0.0,73,0.00,,,0.00,Wunderground v.1.13,2013-01-11 05:25:00,
2013-01-11 00:30:00,27.0,20.1,30.49,North,-999,0.0,0.0,75,0.00,,,-99.99,WeatherLink 6.0.2,2013-01-11 05:30:00,
2013-01-11 00:35:00,27.9,20.4,30.50,NNE,28,0.0,0.0,73,0.00,,,0.00,Wunderground v.1.13,2013-01-11 05:35:00,
2013-01-11 00:40:00,27.9,20.7,30.50,NNE,28,0.0,0.0,74,0.00,,,0.00,Wunderground v.1.13,2013-01-11 05:40:00,
2013-01-11 00:45:00,27.9,20.7,30.48,NNE,28,0.0,0.0,74,0.00,,,0.00,Wunderground v.1.13,2013-01-11 05:45:00,
2013-01-11 00:50:00,27.8,20.6,30.48,NNE,28,1.0,1.0,74,0.00,,,0.00,Wunderground v.1.13,2013-01-11 05:50:00,
2013-01-11 00:55:00,26.7,19.8,30.48,North,-999,0.0,0.0,75,0.00,,,-99.99,WeatherLink 6.0.2,2013-01-11 05:55:00,
2013-01-11 01:00:00,28.1,20.6,30.48,NNE,29,1.0,1.0,73,0.00,,,0.00,Wunderground v.1.13,2013-01-11 06:00:00,
2013-01-11 01:05:00,26.3,20.1,30.49,North,-999,0.0,0.0,77,0.00,,,-99.99,WeatherLink 6.0.2,2013-01-11 06:05:00,
2013-01-11 01:10:00,28.2,20.7,30.48,NNE,29,1.0,1.0,73,0.00,,,0.00,Wunderground v.1.13,2013-01-11 06:10:00,
2013-01-11 01:15:00,27.9,20.4,30.49,NNE,29,0.0,0.0,73,0.00,,,0.00,Wunderground v.1.13,2013-01-11 06:15:00,
2013-01-11 01:20:00,27.5,20.3,30.49,NNE,29,0.0,0.0,74,0.00,,,0.00,Wunderground v.1.13,2013-01-11 06:20:00,
2013-01-11 01:25:00,27.2,20.0,30.49,NNE,29,0.0,0.0,74,0.00,,,0.00,Wunderground v.1.13,2013-01-11 06:25:00,
2013-01-11 01:30:00,25.7,19.8,30.46,North,-999,0.0,0.0,78,0.00,,,-99.99,WeatherLink 6.0.2,2013-01-11 06:30:00,
2013-01-11 01:35:00,26.9,20.3,30.49,NNE,29,0.0,0.0,76,0.00,,,0.00,Wunderground v.1.13,2013-01-11 06:35:00,
2013-01-11 01:40:00,27.0,20.1,30.49,NNE,29,0.0,0.0,75,0.00,,,0.00,Wunderground v.1.13,2013-01-11 06:40:00,
2013-01-11 01:45:00,27.2,20.3,30.48,NNE,29,0.0,0.0,75,0.00,,,0.00,Wunderground v.1.13,2013-01-11 06:45:00,
2013-01-11 01:50:00,26.9,20.0,30.48,NNE,29,0.0,0.0,75,0.00,,,0.00,Wunderground v.1.13,2013-01-11 06:50:00,
2013-01-11 01:55:00,26.6,19.7,30.48,NNE,29,0.0,0.0,75,0.00,,,0.00,Wunderground v.1.13,2013-01-11 06:55:00,
2013-01-11 02:00:00,25.7,19.8,30.46,North,-999,0.0,0.0,78,0.00,,,-99.99,WeatherLink 6.0.2,2013-01-11 07:00:00,
2013-01-11 02:05:00,26.3,20.1,30.49,NNE,29,0.0,0.0,77,0.00,,,0.00,Wunderground v.1.13,2013-01-11 07:05:00,
2013-01-11 02:10:00,26.3,20.1,30.49,NNE,29,0.0,0.0,77,0.00,,,0.00,Wunderground v.1.13,2013-01-11 07:10:00,
2013-01-11 02:15:00,26.1,19.9,30.48,NNE,29,0.0,0.0,77,0.00,,,0.00,Wunderground v.1.13,2013-01-11 07:15:00,
2013-01-11 02:20:00,25.8,19.9,30.48,NNE,29,0.0,0.0,78,0.00,,,0.00,Wunderground v.1.13,2013-01-11 07:20:00,
2013-01-11 02:25:00,25.7,19.8,30.48,NNE,29,0.0,0.0,78,0.00,,,0.00,Wunderground v.1.13,2013-01-11 07:25:00,
2013-01-11 02:30:00,25.3,19.7,30.45,North,-999,0.0,0.0,79,0.00,,,-99.99,WeatherLink 6.0.2,2013-01-11 07:30:00,
2013-01-11 02:35:00,25.8,20.2,30.46,NNE,29,0.0,0.0,79,0.00,,,0.00,Wunderground v.1.13,2013-01-11 07:35:00,
2013-01-11 02:40:00,26.0,20.1,30.46,NNE,29,0.0,0.0,78,0.00,,,0.00,Wunderground v.1.13,2013-01-11 07:40:00,
2013-01-11 02:45:00,25.8,19.9,30.46,NNE,29,0.0,0.0,78,0.00,,,0.00,Wunderground v.1.13,2013-01-11 07:45:00,
2013-01-11 02:50:00,25.8,19.9,30.46,NNE,29,0.0,0.0,78,0.00,,,0.00,Wunderground v.1.13,2013-01-11 07:50:00,
2013-01-11 02:55:00,25.7,19.8,30.46,NNE,29,0.0,0.0,78,0.00,,,0.00,Wunderground v.1.13,2013-01-11 07:55:00,
2013-01-11 03:00:00,25.7,19.8,30.46,NNE,29,0.0,0.0,78,0.00,,,0.00,Wunderground v.1.13,2013-01-11 08:00:00,
2013-01-11 03:05:00,25.7,19.8,30.46,NNE,29,0.0,0.0,78,0.00,,,0.00,Wunderground v.1.13,2013-01-11 08:05:00,
2013-01-11 03:10:00,25.4,19.8,30.45,North,-999,0.0,0.0,79,0.00,,,-99.99,WeatherLink 6.0.2,2013-01-11 08:10:00,
2013-01-11 03:15:00,25.4,19.5,30.46,NNE,29,0.0,0.0,78,0.00,,,0.00,Wunderground v.1.13,2013-01-11 08:15:00,
2013-01-11 03:20:00,25.3,19.7,30.46,NNE,29,0.0,0.0,79,0.00,,,0.00,Wunderground v.1.13,2013-01-11 08:20:00,
2013-01-11 03:25:00,25.3,19.7,30.46,NNE,29,0.0,0.0,79,0.00,,,0.00,Wunderground v.1.13,2013-01-11 08:25:00,
2013-01-11 03:30:00,24.7,19.4,30.45,North,-999,0.0,0.0,80,0.00,,,-99.99,WeatherLink 6.0.2,2013-01-11 08:30:00,
2013-01-11 03:35:00,25.4,19.8,30.45,NNE,29,0.0,0.0,79,0.00,,,0.00,Wunderground v.1.13,2013-01-11 08:35:00,
2013-01-11 03:40:00,25.4,19.8,30.45,NNE,29,0.0,0.0,79,0.00,,,0.00,Wunderground v.1.13,2013-01-11 08:40:00,
2013-01-11 03:45:00,25.3,19.7,30.45,NNE,29,0.0,0.0,79,0.00,,,0.00,Wunderground v.1.13,2013-01-11 08:45:00,
2013-01-11 03:50:00,25.0,19.4,30.45,NNE,29,0.0,0.0,79,0.00,,,0.00,Wunderground v.1.13,2013-01-11 08:50:00,
2013-01-11 03:55:00,25.2,19.6,30.45,North,-999,0.0,0.0,79,0.00,,,-99.99,WeatherLink 6.0.2,2013-01-11 08:55:00,
2013-01-11 04:00:00,25.0,19.4,30.45,NNE,29,0.0,0.0,79,0.00,,,0.00,Wunderground v.1.13,2013-01-11 09:00:00,
2013-01-11 04:05:00,25.3,20.0,30.45,NNE,29,0.0,0.0,80,0.00,,,0.00,Wunderground v.1.13,2013-01-11 09:05:00,
2013-01-11 04:10:00,25.4,19.8,30.45,NNE,29,0.0,0.0,79,0.00,,,0.00,Wunderground v.1.13,2013-01-11 09:10:00,
2013-01-11 04:15:00,25.3,19.7,30.45,NNE,29,0.0,0.0,79,0.00,,,0.00,Wunderground v.1.13,2013-01-11 09:15:00,
2013-01-11 04:20:00,25.1,19.5,30.45,NNE,29,0.0,0.0,79,0.00,,,0.00,Wunderground v.1.13,2013-01-11 09:20:00,
2013-01-11 04:25:00,24.8,19.2,30.45,NNE,29,0.0,0.0,79,0.00,,,0.00,Wunderground v.1.13,2013-01-11 09:25:00,
2013-01-11 04:30:00,24.7,19.4,30.45,NNE,29,0.0,0.0,80,0.00,,,0.00,Wunderground v.1.13,2013-01-11 09:30:00,
2013-01-11 04:35:00,25.7,20.1,30.46,North,-999,0.0,0.0,79,0.00,,,-99.99,WeatherLink 6.0.2,2013-01-11 09:35:00,
2013-01-11 04:40:00,25.0,19.7,30.45,NNE,29,0.0,0.0,80,0.00,,,0.00,Wunderground v.1.13,2013-01-11 09:40:00,
2013-01-11 04:45:00,25.1,19.5,30.45,NNE,29,0.0,0.0,79,0.00,,,0.00,Wunderground v.1.13,2013-01-11 09:45:00,
2013-01-11 04:50:00,25.6,20.0,30.45,North,-999,0.0,0.0,79,0.00,,,-99.99,WeatherLink 6.0.2,2013-01-11 09:50:00,
2013-01-11 04:55:00,25.3,19.7,30.45,NNE,29,0.0,0.0,79,0.00,,,0.00,Wunderground v.1.13,2013-01-11 09:55:00,
2013-01-11 05:00:00,25.4,20.1,30.46,North,-999,0.0,0.0,80,0.00,,,-99.99,WeatherLink 6.0.2,2013-01-11 10:00:00,
2013-01-11 05:05:00,25.0,19.4,30.45,NNE,29,0.0,0.0,79,0.00,,,0.00,Wunderground v.1.13,2013-01-11 10:05:00,
2013-01-11 05:10:00,25.1,19.8,30.45,NNE,29,0.0,0.0,80,0.00,,,0.00,Wunderground v.1.13,2013-01-11 10:10:00,
2013-01-11 05:15:00,25.3,20.0,30.46,NNE,29,0.0,0.0,80,0.00,,,0.00,Wunderground v.1.13,2013-01-11 10:15:00,
2013-01-11 05:20:00,25.4,19.8,30.46,NNE,29,0.0,0.0,79,0.00,,,0.00,Wunderground v.1.13,2013-01-11 10:20:00,
2013-01-11 05:25:00,25.6,20.3,30.46,NNE,29,0.0,0.0,80,0.00,,,0.00,Wunderground v.1.13,2013-01-11 10:25:00,
2013-01-11 05:30:00,25.7,20.1,30.46,NNE,29,0.0,0.0,79,0.00,,,0.00,Wunderground v.1.13,2013-01-11 10:30:00,
2013-01-11 05:35:00,25.4,20.4,30.47,North,-999,0.0,0.0,81,0.00,,,-99.99,WeatherLink 6.0.2,2013-01-11 10:35:00,
2013-01-11 05:40:00,25.8,20.2,30.46,NNE,29,0.0,0.0,79,0.00,,,0.00,Wunderground v.1.13,2013-01-11 10:40:00,
2013-01-11 05:45:00,25.7,20.1,30.45,NNE,29,0.0,0.0,79,0.00,,,0.00,Wunderground v.1.13,2013-01-11 10:45:00,
2013-01-11 05:50:00,25.6,20.0,30.45,NNE,29,0.0,0.0,79,0.00,,,0.00,Wunderground v.1.13,2013-01-11 10:50:00,
2013-01-11 05:55:00,25.4,20.1,30.45,NNE,29,0.0,0.0,80,0.00,,,0.00,Wunderground v.1.13,2013-01-11 10:55:00,
2013-01-11 06:00:00,25.6,20.6,30.46,North,-999,0.0,0.0,81,0.00,,,-99.99,WeatherLink 6.0.2,2013-01-11 11:00:00,
2013-01-11 06:05:00,25.4,20.1,30.46,NNE,29,0.0,0.0,80,0.00,,,0.00,Wunderground v.1.13,2013-01-11 11:05:00,
2013-01-11 06:10:00,25.7,20.7,30.46,North,-999,0.0,0.0,81,0.00,,,-99.99,WeatherLink 6.0.2,2013-01-11 11:10:00,
2013-01-11 06:15:00,25.3,20.0,30.46,NNE,29,0.0,0.0,80,0.00,,,0.00,Wunderground v.1.13,2013-01-11 11:15:00,
2013-01-11 06:20:00,25.8,20.5,30.47,North,-999,0.0,0.0,80,0.00,,,-99.99,WeatherLink 6.0.2,2013-01-11 11:20:00,
2013-01-11 06:25:00,25.4,20.1,30.46,NNE,29,0.0,0.0,80,0.00,,,0.00,Wunderground v.1.13,2013-01-11 11:25:00,
2013-01-11 06:30:00,25.4,20.1,30.47,NNE,29,0.0,0.0,80,0.00,,,0.00,Wunderground v.1.13,2013-01-11 11:30:00,
2013-01-11 06:35:00,25.4,20.4,30.47,NNE,29,0.0,0.0,81,0.00,,,0.00,Wunderground v.1.13,2013-01-11 11:35:00,
2013-01-11 06:40:00,25.6,20.3,30.47,NNE,29,0.0,0.0,80,0.00,,,0.00,Wunderground v.1.13,2013-01-11 11:40:00,
2013-01-11 06:45:00,26.0,20.7,30.46,North,-999,0.0,0.0,80,0.00,,,-99.99,WeatherLink 6.0.2,2013-01-11 11:45:00,
2013-01-11 06:50:00,25.6,20.6,30.46,NNE,29,0.0,0.0,81,0.00,,,0.00,Wunderground v.1.13,2013-01-11 11:50:00,
2013-01-11 06:55:00,25.6,20.3,30.46,NNE,29,0.0,0.0,80,0.00,,,0.00,Wunderground v.1.13,2013-01-11 11:55:00,
2013-01-11 07:00:00,25.7,20.7,30.46,NNE,29,0.0,0.0,81,0.00,,,0.00,Wunderground v.1.13,2013-01-11 12:00:00,
2013-01-11 07:05:00,25.7,20.7,30.46,NNE,29,0.0,0.0,81,0.00,,,0.00,Wunderground v.1.13,2013-01-11 12:05:00,
2013-01-11 07:10:00,25.7,20.7,30.46,NNE,29,0.0,0.0,81,0.00,,,0.00,Wunderground v.1.13,2013-01-11 12:10:00,
2013-01-11 07:15:00,27.8,20.6,30.46,North,-999,0.0,0.0,74,0.00,,,-99.99,WeatherLink 6.0.2,2013-01-11 12:15:00,
2013-01-11 07:20:00,25.8,20.5,30.47,NNE,29,0.0,0.0,80,0.00,,,0.00,Wunderground v.1.13,2013-01-11 12:20:00,
2013-01-11 07:25:00,25.8,20.5,30.47,NNE,29,0.0,0.0,80,0.00,,,0.00,Wunderground v.1.13,2013-01-11 12:25:00,
2013-01-11 07:30:00,28.2,21.3,30.46,North,-999,0.0,0.0,75,0.00,,,-99.99,WeatherLink 6.0.2,2013-01-11 12:30:00,
2013-01-11 07:35:00,25.8,20.5,30.46,NNE,29,0.0,0.0,80,0.00,,,0.00,Wunderground v.1.13,2013-01-11 12:35:00,
2013-01-11 07:40:00,25.8,20.5,30.46,NNE,29,0.0,0.0,80,0.00,,,0.00,Wunderground v.1.13,2013-01-11 12:40:00,
2013-01-11 07:45:00,26.0,20.7,30.46,NNE,29,0.0,0.0,80,0.00,,,0.00,Wunderground v.1.13,2013-01-11 12:45:00,
2013-01-11 07:50:00,26.1,20.8,30.46,NNE,29,0.0,0.0,80,0.00,,,0.00,Wunderground v.1.13,2013-01-11 12:50:00,
2013-01-11 07:55:00,26.4,20.8,30.46,NNE,29,0.0,0.0,79,0.00,,,0.00,Wunderground v.1.13,2013-01-11 12:55:00,
2013-01-11 08:00:00,28.1,21.2,30.46,North,-999,0.0,0.0,75,0.00,,,-99.99,WeatherLink 6.0.2,2013-01-11 13:00:00,
2013-01-11 08:05:00,27.0,20.7,30.46,NNE,29,0.0,0.0,77,0.00,,,0.00,Wunderground v.1.13,2013-01-11 13:05:00,
2013-01-11 08:10:00,27.5,20.6,30.46,NNE,29,0.0,0.0,75,0.00,,,0.00,Wunderground v.1.13,2013-01-11 13:10:00,
2013-01-11 08:15:00,28.9,21.7,30.46,North,-999,0.0,0.0,74,0.00,,,-99.99,WeatherLink 6.0.2,2013-01-11 13:15:00,
2013-01-11 08:20:00,28.2,21.0,30.46,NNE,29,0.0,0.0,74,0.00,,,0.00,Wunderground v.1.13,2013-01-11 13:20:00,
2013-01-11 08:25:00,28.2,21.3,30.46,NNE,29,0.0,0.0,75,0.00,,,0.00,Wunderground v.1.13,2013-01-11 13:25:00,
2013-01-11 08:30:00,28.2,21.3,30.46,NNE,29,0.0,0.0,75,0.00,,,0.00,Wunderground v.1.13,2013-01-11 13:30:00,
2013-01-11 08:35:00,28.1,21.5,30.46,NNE,29,0.0,0.0,76,0.00,,,0.00,Wunderground v.1.13,2013-01-11 13:35:00,
2013-01-11 08:40:00,27.9,21.3,30.46,NNE,29,0.0,0.0,76,0.00,,,0.00,Wunderground v.1.13,2013-01-11 13:40:00,
2013-01-11 08:45:00,31.4,20.2,30.43,NNE,22,0.0,2.0,63,0.00,,,-99.99,WeatherLink 6.0.2,2013-01-11 13:45:00,
2013-01-11 08:50:00,27.9,21.0,30.45,NNE,29,0.0,0.0,75,0.00,,,0.00,Wunderground v.1.13,2013-01-11 13:50:00,
2013-01-11 08:55:00,32.1,20.9,30.43,WNW,292,0.0,1.0,63,0.00,,,-99.99,WeatherLink 6.0.2,2013-01-11 13:55:00,
2013-01-11 09:00:00,28.1,21.2,30.46,NNE,29,0.0,0.0,75,0.00,,,0.00,Wunderground v.1.13,2013-01-11 14:00:00,
2013-01-11 09:05:00,28.2,21.0,30.46,N/A,-737280,0.0,0.0,74,0.00,,,0.00,Wunderground v.1.13,2013-01-11 14:05:00,
2013-01-11 09:10:00,28.5,21.3,30.46,N/A,-737280,0.0,0.0,74,0.00,,,0.00,Wunderground v.1.13,2013-01-11 14:10:00,
2013-01-11 09:15:00,28.9,21.7,30.46,N/A,-737280,0.0,0.0,74,0.00,,,0.00,Wunderground v.1.13,2013-01-11 14:15:00,
2013-01-11 09:20:00,29.3,21.7,30.46,N/A,-737280,0.0,0.0,73,0.00,,,0.00,Wunderground v.1.13,2013-01-11 14:20:00,
2013-01-11 09:25:00,29.7,21.1,30.46,NNE,23,0.0,1.0,70,0.00,,,0.00,Wunderground v.1.13,2013-01-11 14:25:00,
2013-01-11 09:30:00,33.8,19.7,30.41,SE,135,1.0,2.0,56,0.00,,,-99.99,WeatherLink 6.0.2,2013-01-11 14:30:00,
2013-01-11 09:35:00,30.2,20.9,30.44,N/A,-737280,0.0,0.0,68,0.00,,,0.00,Wunderground v.1.13,2013-01-11 14:35:00,
2013-01-11 09:40:00,31.3,22.0,30.44,NNE,29,0.0,0.0,68,0.00,,,0.00,Wunderground v.1.13,2013-01-11 14:40:00,
2013-01-11 09:45:00,34.4,20.7,30.40,South,180,0.0,2.0,57,0.00,,,-99.99,WeatherLink 6.0.2,2013-01-11 14:45:00,
2013-01-11 09:50:00,31.9,20.7,30.43,WNW,283,0.0,0.0,63,0.00,,,0.00,Wunderground v.1.13,2013-01-11 14:50:00,
2013-01-11 09:55:00,32.2,21.0,30.43,WNW,283,0.0,0.0,63,0.00,,,0.00,Wunderground v.1.13,2013-01-11 14:55:00,
2013-01-11 10:00:00,32.5,20.1,30.43,South,182,0.0,2.0,60,0.00,,,0.00,Wunderground v.1.13,2013-01-11 15:00:00,
2013-01-11 10:05:00,32.8,20.0,30.43,SSW,194,1.0,1.0,59,0.00,,,0.00,Wunderground v.1.13,2013-01-11 15:05:00,
2013-01-11 10:10:00,33.1,19.9,30.43,ESE,123,0.0,0.0,58,0.00,,,0.00,Wunderground v.1.13,2013-01-11 15:10:00,
2013-01-11 10:15:00,33.4,19.4,30.43,SW,218,1.0,1.0,56,0.00,,,0.00,Wunderground v.1.13,2013-01-11 15:15:00,
2013-01-11 10:20:00,35.4,20.4,30.39,SW,225,1.0,3.0,54,0.00,,,-99.99,WeatherLink 6.0.2,2013-01-11 15:20:00,
2013-01-11 10:25:00,33.7,20.5,30.43,SSW,212,1.0,2.0,58,0.00,,,0.00,Wunderground v.1.13,2013-01-11 15:25:00,
2013-01-11 10:30:00,33.8,19.7,30.41,South,173,1.0,1.0,56,0.00,,,0.00,Wunderground v.1.13,2013-01-11 15:30:00,
2013-01-11 10:35:00,34.1,20.0,30.41,South,173,0.0,0.0,56,0.00,,,0.00,Wunderground v.1.13,2013-01-11 15:35:00,
2013-01-11 10:40:00,34.3,20.2,30.41,South,173,0.0,1.0,56,0.00,,,0.00,Wunderground v.1.13,2013-01-11 15:40:00,
2013-01-11 10:45:00,34.4,20.3,30.40,South,173,0.0,0.0,56,0.00,,,0.00,Wunderground v.1.13,2013-01-11 15:45:00,
2013-01-11 10:50:00,34.4,20.7,30.40,South,173,0.0,0.0,57,0.00,,,0.00,Wunderground v.1.13,2013-01-11 15:50:00,
2013-01-11 10:55:00,33.8,20.6,30.39,SW,225,2.0,3.0,58,0.00,,,-99.99,WeatherLink 6.0.2,2013-01-11 15:55:00,
2013-01-11 11:00:00,34.6,20.9,30.40,South,173,0.0,0.0,57,0.00,,,0.00,Wunderground v.1.13,2013-01-11 16:00:00,
2013-01-11 11:05:00,34.9,19.5,30.40,South,173,0.0,0.0,53,0.00,,,0.00,Wunderground v.1.13,2013-01-11 16:05:00,
2013-01-11 11:10:00,35.0,18.7,30.40,SW,221,1.0,1.0,51,0.00,,,0.00,Wunderground v.1.13,2013-01-11 16:10:00,
2013-01-11 11:15:00,35.3,19.4,30.39,SW,221,1.0,1.0,52,0.00,,,0.00,Wunderground v.1.13,2013-01-11 16:15:00,
2013-01-11 11:20:00,35.3,19.4,30.39,SW,221,1.0,1.0,52,0.00,,,0.00,Wunderground v.1.13,2013-01-11 16:20:00,
2013-01-11 11:25:00,34.4,19.9,30.37,SW,225,1.0,4.0,55,0.00,,,-99.99,WeatherLink 6.0.2,2013-01-11 16:25:00,
2013-01-11 11:30:00,35.0,20.4,30.38,SW,221,1.0,1.0,55,0.00,,,0.00,Wunderground v.1.13,2013-01-11 16:30:00,
2013-01-11 11:35:00,34.9,20.4,30.38,SW,221,1.0,1.0,55,0.00,,,0.00,Wunderground v.1.13,2013-01-11 16:35:00,
2013-01-11 11:40:00,34.8,19.8,30.36,SW,225,1.0,3.0,54,0.00,,,-99.99,WeatherLink 6.0.2,2013-01-11 16:40:00,
2013-01-11 11:45:00,34.3,20.2,30.39,SW,219,2.0,2.0,56,0.00,,,0.00,Wunderground v.1.13,2013-01-11 16:45:00,
2013-01-11 11:50:00,35.0,20.0,30.36,SW,225,2.0,4.0,54,0.00,,,-99.99,WeatherLink 6.0.2,2013-01-11 16:50:00,
2013-01-11 11:55:00,33.7,20.5,30.39,SW,222,1.0,1.0,58,0.00,,,0.00,Wunderground v.1.13,2013-01-11 16:55:00,
2013-01-11 12:00:00,33.4,20.2,30.38,WSW,240,2.0,2.0,58,0.00,,,0.00,Wunderground v.1.13,2013-01-11 17:00:00,
2013-01-11 12:05:00,33.4,20.2,30.38,SW,226,1.0,1.0,58,0.00,,,0.00,Wunderground v.1.13,2013-01-11 17:05:00,
2013-01-11 12:10:00,33.4,20.2,30.38,SW,236,1.0,3.0,58,0.00,,,0.00,Wunderground v.1.13,2013-01-11 17:10:00,
2013-01-11 12:15:00,33.8,20.6,30.37,SW,230,2.0,2.0,58,0.00,,,0.00,Wunderground v.1.13,2013-01-11 17:15:00,
2013-01-11 12:20:00,34.8,21.1,30.35,SSW,202,1.0,4.0,57,0.00,,,-99.99,WeatherLink 6.0.2,2013-01-11 17:20:00,
2013-01-11 12:25:00,34.4,20.3,30.37,SW,223,1.0,3.0,56,0.00,,,0.00,Wunderground v.1.13,2013-01-11 17:25:00,
2013-01-11 12:30:00,34.7,20.2,30.36,South,190,1.0,2.0,55,0.00,,,0.00,Wunderground v.1.13,2013-01-11 17:30:00,
2013-01-11 12:35:00,34.7,22.2,30.34,ESE,112,1.0,3.0,60,0.00,,,-99.99,WeatherLink 6.0.2,2013-01-11 17:35:00,
2013-01-11 12:40:00,34.9,19.9,30.36,SW,215,2.0,2.0,54,0.00,,,0.00,Wunderground v.1.13,2013-01-11 17:40:00,
2013-01-11 12:45:00,35.0,20.0,30.36,SW,218,2.0,2.0,54,0.00,,,0.00,Wunderground v.1.13,2013-01-11 17:45:00,
2013-01-11 12:50:00,35.0,20.4,30.36,SW,228,1.0,3.0,55,0.00,,,0.00,Wunderground v.1.13,2013-01-11 17:50:00,
2013-01-11 12:55:00,34.9,20.8,30.36,SW,217,2.0,2.0,56,0.00,,,0.00,Wunderground v.1.13,2013-01-11 17:55:00,
2013-01-11 13:00:00,34.6,22.1,30.33,SW,225,1.0,3.0,60,0.00,,,-99.99,WeatherLink 6.0.2,2013-01-11 18:00:00,
2013-01-11 13:05:00,34.9,21.2,30.35,SW,217,1.0,2.0,57,0.00,,,0.00,Wunderground v.1.13,2013-01-11 18:05:00,
2013-01-11 13:10:00,34.7,20.6,30.35,SW,217,1.0,1.0,56,0.00,,,0.00,Wunderground v.1.13,2013-01-11 18:10:00,
2013-01-11 13:15:00,34.9,21.2,30.35,SW,217,1.0,1.0,57,0.00,,,0.00,Wunderground v.1.13,2013-01-11 18:15:00,
2013-01-11 13:20:00,34.4,22.7,30.33,SW,225,1.0,3.0,62,0.00,,,-99.99,WeatherLink 6.0.2,2013-01-11 18:20:00,
2013-01-11 13:25:00,34.7,21.4,30.35,SSW,193,1.0,1.0,58,0.00,,,0.00,Wunderground v.1.13,2013-01-11 18:25:00,
2013-01-11 13:30:00,34.7,21.4,30.34,SSW,193,1.0,1.0,58,0.00,,,0.00,Wunderground v.1.13,2013-01-11 18:30:00,
2013-01-11 13:35:00,34.3,23.0,30.31,SW,225,1.0,4.0,63,0.00,,,-99.99,WeatherLink 6.0.2,2013-01-11 18:35:00,
2013-01-11 13:40:00,34.6,21.7,30.34,SSW,194,1.0,1.0,59,0.00,,,0.00,Wunderground v.1.13,2013-01-11 18:40:00,
2013-01-11 13:45:00,34.6,22.1,30.32,SSW,212,1.0,1.0,60,0.00,,,0.00,Wunderground v.1.13,2013-01-11 18:45:00,
2013-01-11 13:50:00,34.6,22.5,30.32,SSW,212,1.0,1.0,61,0.00,,,0.00,Wunderground v.1.13,2013-01-11 18:50:00,
2013-01-11 13:55:00,34.6,22.5,30.32,SW,231,1.0,1.0,61,0.00,,,0.00,Wunderground v.1.13,2013-01-11 18:55:00,
2013-01-11 14:00:00,34.6,22.1,30.33,SW,231,1.0,2.0,60,0.00,,,0.00,Wunderground v.1.13,2013-01-11 19:00:00,
2013-01-11 14:05:00,34.0,23.8,30.30,WNW,292,1.0,2.0,66,0.00,,,-99.99,WeatherLink 6.0.2,2013-01-11 19:05:00,
2013-01-11 14:10:00,34.6,22.9,30.33,South,181,1.0,2.0,62,0.00,,,0.00,Wunderground v.1.13,2013-01-11 19:10:00,
2013-01-11 14:15:00,34.4,22.3,30.32,SSW,192,2.0,2.0,61,0.00,,,0.00,Wunderground v.1.13,2013-01-11 19:15:00,
2013-01-11 14:20:00,34.4,22.7,30.32,SW,217,2.0,2.0,62,0.00,,,0.00,Wunderground v.1.13,2013-01-11 19:20:00,
2013-01-11 14:25:00,33.8,24.4,30.30,SSW,202,1.0,3.0,68,0.00,,,-99.99,WeatherLink 6.0.2,2013-01-11 19:25:00,
2013-01-11 14:30:00,34.4,23.5,30.31,South,173,1.0,1.0,64,0.00,,,0.00,Wunderground v.1.13,2013-01-11 19:30:00,
2013-01-11 14:35:00,34.3,22.6,30.31,South,182,1.0,1.0,62,0.00,,,0.00,Wunderground v.1.13,2013-01-11 19:35:00,
2013-01-11 14:40:00,33.7,24.6,30.30,SSW,202,1.0,3.0,69,0.00,,,-99.99,WeatherLink 6.0.2,2013-01-11 19:40:00,
2013-01-11 14:45:00,34.3,23.0,30.31,South,190,1.0,1.0,63,0.00,,,0.00,Wunderground v.1.13,2013-01-11 19:45:00,
2013-01-11 14:50:00,34.1,23.2,30.31,South,190,1.0,1.0,64,0.00,,,0.00,Wunderground v.1.13,2013-01-11 19:50:00,
2013-01-11 14:55:00,34.1,23.6,30.31,SE,140,0.0,1.0,65,0.00,,,0.00,Wunderground v.1.13,2013-01-11 19:55:00,
2013-01-11 15:00:00,33.5,24.4,30.28,SW,225,1.0,2.0,69,0.00,,,-99.99,WeatherLink 6.0.2,2013-01-11 20:00:00,
2013-01-11 15:05:00,34.0,23.5,30.30,WNW,287,0.0,2.0,65,0.00,,,0.00,Wunderground v.1.13,2013-01-11 20:05:00,
2013-01-11 15:10:00,34.0,23.8,30.30,WSW,242,0.0,0.0,66,0.00,,,0.00,Wunderground v.1.13,2013-01-11 20:10:00,
2013-01-11 15:15:00,34.0,23.8,30.30,South,169,1.0,1.0,66,0.00,,,0.00,Wunderground v.1.13,2013-01-11 20:15:00,
2013-01-11 15:20:00,33.3,25.2,30.28,SSW,202,1.0,4.0,72,0.00,,,-99.99,WeatherLink 6.0.2,2013-01-11 20:20:00,
2013-01-11 15:25:00,33.8,24.4,30.30,SSW,211,1.0,1.0,68,0.00,,,0.00,Wunderground v.1.13,2013-01-11 20:25:00,
2013-01-11 15:30:00,33.8,24.7,30.30,SSW,201,1.0,1.0,69,0.00,,,0.00,Wunderground v.1.13,2013-01-11 20:30:00,
2013-01-11 15:35:00,33.7,24.6,30.30,SSW,201,1.0,1.0,69,0.00,,,0.00,Wunderground v.1.13,2013-01-11 20:35:00,
2013-01-11 15:40:00,33.7,24.6,30.30,SSW,201,0.0,0.0,69,0.00,,,0.00,Wunderground v.1.13,2013-01-11 20:40:00,
2013-01-11 15:45:00,33.7,24.6,30.29,SSW,201,1.0,1.0,69,0.00,,,0.00,Wunderground v.1.13,2013-01-11 20:45:00,
2013-01-11 15:50:00,33.2,25.5,30.27,SW,225,0.0,3.0,73,0.00,,,-99.99,WeatherLink 6.0.2,2013-01-11 20:50:00,
2013-01-11 15:55:00,33.5,24.4,30.29,SW,215,1.0,1.0,69,0.00,,,0.00,Wunderground v.1.13,2013-01-11 20:55:00,
2013-01-11 16:00:00,33.5,24.8,30.28,SW,215,1.0,2.0,70,0.00,,,0.00,Wunderground v.1.13,2013-01-11 21:00:00,
2013-01-11 16:05:00,33.4,24.7,30.28,SW,215,1.0,2.0,70,0.00,,,0.00,Wunderground v.1.13,2013-01-11 21:05:00,
2013-01-11 16:10:00,33.4,24.7,30.28,SW,215,1.0,1.0,70,0.00,,,0.00,Wunderground v.1.13,2013-01-11 21:10:00,
2013-01-11 16:15:00,33.4,25.3,30.28,SW,215,1.0,1.0,72,0.00,,,0.00,Wunderground v.1.13,2013-01-11 21:15:00,
2013-01-11 16:20:00,32.6,27.1,30.26,SW,225,1.0,3.0,80,0.00,,,-99.99,WeatherLink 6.0.2,2013-01-11 21:20:00,
2013-01-11 16:25:00,33.2,24.8,30.28,SSW,211,1.0,1.0,71,0.00,,,0.00,Wunderground v.1.13,2013-01-11 21:25:00,
2013-01-11 16:30:00,33.2,25.1,30.28,SSW,211,1.0,1.0,72,0.00,,,0.00,Wunderground v.1.13,2013-01-11 21:30:00,
2013-01-11 16:35:00,33.2,25.1,30.28,South,188,1.0,1.0,72,0.00,,,0.00,Wunderground v.1.13,2013-01-11 21:35:00,
2013-01-11 16:40:00,33.2,25.1,30.28,SW,219,1.0,1.0,72,0.00,,,0.00,Wunderground v.1.13,2013-01-11 21:40:00,
2013-01-11 16:45:00,33.2,25.1,30.27,SW,219,0.0,0.0,72,0.00,,,0.00,Wunderground v.1.13,2013-01-11 21:45:00,
2013-01-11 16:50:00,31.9,28.5,30.25,South,180,0.0,1.0,87,0.02,,,-99.99,WeatherLink 6.0.2,2013-01-11 21:50:00,
2013-01-11 16:55:00,33.2,25.5,30.27,SW,219,1.0,1.0,73,0.00,,,0.00,Wunderground v.1.13,2013-01-11 21:55:00,
2013-01-11 17:00:00,33.2,25.8,30.28,SW,215,1.0,1.0,74,0.00,,,0.00,Wunderground v.1.13,2013-01-11 22:00:00,
2013-01-11 17:05:00,31.9,28.8,30.23,SW,225,1.0,4.0,88,0.02,,,-99.99,WeatherLink 6.0.2,2013-01-11 22:05:00,
2013-01-11 17:10:00,32.8,26.4,30.28,SW,215,1.0,1.0,77,0.00,,,0.00,Wunderground v.1.13,2013-01-11 22:10:00,
2013-01-11 17:15:00,32.7,26.6,30.26,SW,215,1.0,1.0,78,0.00,,,0.00,Wunderground v.1.13,2013-01-11 22:15:00,
2013-01-11 17:20:00,31.8,28.9,30.23,SSW,202,1.0,2.0,89,0.02,,,-99.99,WeatherLink 6.0.2,2013-01-11 22:20:00,
2013-01-11 17:25:00,32.4,27.5,30.26,SW,214,0.0,0.0,82,0.00,,,0.01,Wunderground v.1.13,2013-01-11 22:25:00,
2013-01-11 17:30:00,32.2,27.6,30.26,SSE,150,0.0,1.0,83,0.00,,,0.01,Wunderground v.1.13,2013-01-11 22:30:00,
2013-01-11 17:35:00,31.9,29.3,30.23,SW,225,1.0,2.0,90,0.00,,,-99.99,WeatherLink 6.0.2,2013-01-11 22:35:00,
2013-01-11 17:40:00,32.1,28.4,30.26,SSE,150,0.0,0.0,86,0.05,,,0.02,Wunderground v.1.13,2013-01-11 22:40:00,
2013-01-11 17:45:00,31.9,28.2,30.25,South,184,0.0,0.0,86,0.05,,,0.02,Wunderground v.1.13,2013-01-11 22:45:00,
2013-01-11 17:50:00,31.9,28.5,30.25,South,184,0.0,0.0,87,0.04,,,0.02,Wunderground v.1.13,2013-01-11 22:50:00,
2013-01-11 17:55:00,31.9,28.5,30.25,South,188,0.0,0.0,87,0.00,,,0.02,Wunderground v.1.13,2013-01-11 22:55:00,
2013-01-11 18:00:00,31.9,28.8,30.23,East,83,0.0,1.0,88,0.00,,,0.02,Wunderground v.1.13,2013-01-11 23:00:00,
2013-01-11 18:05:00,31.8,28.7,30.23,SSW,193,1.0,1.0,88,0.00,,,0.02,Wunderground v.1.13,2013-01-11 23:05:00,
2013-01-11 18:10:00,31.9,29.3,30.23,SSE,157,0.0,3.0,90,0.00,,,-99.99,WeatherLink 6.0.2,2013-01-11 23:10:00,
2013-01-11 18:15:00,31.8,28.9,30.23,SSW,199,1.0,1.0,89,0.00,,,0.02,Wunderground v.1.13,2013-01-11 23:15:00,
2013-01-11 18:20:00,31.8,28.9,30.23,South,172,1.0,1.0,89,0.00,,,0.02,Wunderground v.1.13,2013-01-11 23:20:00,
2013-01-11 18:25:00,31.8,28.9,30.23,South,172,0.0,0.0,89,0.00,,,0.02,Wunderground v.1.13,2013-01-11 23:25:00,
2013-01-11 18:30:00,32.1,29.8,30.22,South,180,1.0,3.0,91,0.01,,,-99.99,WeatherLink 6.0.2,2013-01-11 23:30:00,
2013-01-11 18:35:00,31.9,29.0,30.23,SW,215,1.0,1.0,89,0.00,,,0.02,Wunderground v.1.13,2013-01-11 23:35:00,
2013-01-11 18:40:00,31.9,29.3,30.23,SW,215,1.0,1.0,90,0.00,,,0.02,Wunderground v.1.13,2013-01-11 23:40:00,
2013-01-11 18:45:00,32.2,30.1,30.21,South,180,0.0,1.0,92,0.01,,,-99.99,WeatherLink 6.0.2,2013-01-11 23:45:00,
2013-01-11 18:50:00,31.9,29.3,30.23,SW,218,1.0,3.0,90,0.00,,,0.02,Wunderground v.1.13,2013-01-11 23:50:00,
2013-01-11 18:55:00,31.9,29.3,30.23,SSW,192,1.0,1.0,90,0.00,,,0.02,Wunderground v.1.13,2013-01-11 23:55:00,
2013-01-11 19:00:00,31.9,29.3,30.23,SSW,192,1.0,1.0,90,0.00,,,0.02,Wunderground v.1.13,2013-01-12 00:00:00,
2013-01-11 19:05:00,31.8,29.2,30.23,South,178,0.0,0.0,90,0.00,,,0.02,Wunderground v.1.13,2013-01-12 00:05:00,
2013-01-11 19:10:00,32.4,30.3,30.21,SE,135,0.0,2.0,92,0.01,,,-99.99,WeatherLink 6.0.2,2013-01-12 00:10:00,
2013-01-11 19:15:00,31.9,29.6,30.22,SSE,154,0.0,1.0,91,0.00,,,0.02,Wunderground v.1.13,2013-01-12 00:15:00,
2013-01-11 19:20:00,32.1,29.8,30.22,SSE,157,1.0,1.0,91,0.00,,,0.02,Wunderground v.1.13,2013-01-12 00:20:00,
2013-01-11 19:25:00,32.1,29.8,30.22,SSE,157,1.0,1.0,91,0.00,,,0.02,Wunderground v.1.13,2013-01-12 00:25:00,
2013-01-11 19:30:00,32.1,29.8,30.22,South,174,1.0,1.0,91,0.00,,,0.03,Wunderground v.1.13,2013-01-12 00:30:00,
2013-01-11 19:35:00,32.5,30.7,30.19,North,-999,0.0,0.0,93,0.01,,,-99.99,WeatherLink 6.0.2,2013-01-12 00:35:00,
2013-01-11 19:40:00,32.1,30.0,30.22,South,191,0.0,0.0,92,0.00,,,0.03,Wunderground v.1.13,2013-01-12 00:40:00,
2013-01-11 19:45:00,32.5,30.7,30.19,SE,135,0.0,1.0,93,0.01,,,-99.99,WeatherLink 6.0.2,2013-01-12 00:45:00,
2013-01-11 19:50:00,32.2,30.1,30.21,South,173,0.0,0.0,92,0.00,,,0.03,Wunderground v.1.13,2013-01-12 00:50:00,
2013-01-11 19:55:00,32.2,30.1,30.21,SE,139,0.0,1.0,92,0.00,,,0.03,Wunderground v.1.13,2013-01-12 00:55:00,
2013-01-11 20:00:00,32.2,30.1,30.21,SE,140,0.0,0.0,92,0.00,,,0.03,Wunderground v.1.13,2013-01-12 01:00:00,
2013-01-11 20:05:00,32.5,30.7,30.18,North,-999,0.0,0.0,93,0.01,,,-99.99,WeatherLink 6.0.2,2013-01-12 01:05:00,
2013-01-11 20:10:00,32.4,30.3,30.21,SE,138,0.0,0.0,92,0.00,,,0.03,Wunderground v.1.13,2013-01-12 01:10:00,
2013-01-11 20:15:00,32.7,30.9,30.17,SSE,157,1.0,3.0,93,0.01,,,-99.99,WeatherLink 6.0.2,2013-01-12 01:15:00,
2013-01-11 20:20:00,32.4,30.3,30.20,SE,138,0.0,0.0,92,0.00,,,0.04,Wunderground v.1.13,2013-01-12 01:20:00,
2013-01-11 20:25:00,32.9,31.1,30.17,SSW,202,1.0,3.0,93,0.00,,,-99.99,WeatherLink 6.0.2,2013-01-12 01:25:00,
2013-01-11 20:30:00,32.5,30.7,30.20,SSW,204,0.0,0.0,93,0.00,,,0.04,Wunderground v.1.13,2013-01-12 01:30:00,
2013-01-11 20:35:00,32.5,30.7,30.20,SSW,204,0.0,0.0,93,0.00,,,0.04,Wunderground v.1.13,2013-01-12 01:35:00,
2013-01-11 20:40:00,32.5,30.7,30.20,SE,134,0.0,0.0,93,0.00,,,0.04,Wunderground v.1.13,2013-01-12 01:40:00,
2013-01-11 20:45:00,32.5,30.7,30.19,SE,134,0.0,0.0,93,0.00,,,0.04,Wunderground v.1.13,2013-01-12 01:45:00,
2013-01-11 20:50:00,32.5,30.7,30.19,SE,134,0.0,0.0,93,0.00,,,0.04,Wunderground v.1.13,2013-01-12 01:50:00,
2013-01-11 20:55:00,32.5,30.7,30.19,SE,134,0.0,0.0,93,0.00,,,0.04,Wunderground v.1.13,2013-01-12 01:55:00,
2013-01-11 21:00:00,33.5,32.0,30.18,SSW,202,1.0,3.0,94,0.00,,,-99.99,WeatherLink 6.0.2,2013-01-12 02:00:00,
2013-01-11 21:05:00,32.5,30.7,30.18,SE,134,0.0,0.0,93,0.00,,,0.04,Wunderground v.1.13,2013-01-12 02:05:00,
2013-01-11 21:10:00,32.7,30.9,30.18,SE,134,0.0,0.0,93,0.00,,,0.04,Wunderground v.1.13,2013-01-12 02:10:00,
2013-01-11 21:15:00,32.7,30.9,30.17,SSE,166,0.0,1.0,93,0.00,,,0.04,Wunderground v.1.13,2013-01-12 02:15:00,
2013-01-11 21:20:00,32.9,31.4,30.17,SE,136,1.0,1.0,94,0.00,,,0.04,Wunderground v.1.13,2013-01-12 02:20:00,
2013-01-11 21:25:00,33.7,32.2,30.18,SSW,202,0.0,2.0,94,0.01,,,-99.99,WeatherLink 6.0.2,2013-01-12 02:25:00,
2013-01-11 21:30:00,32.9,31.4,30.16,SSW,200,1.0,1.0,94,0.00,,,0.04,Wunderground v.1.13,2013-01-12 02:30:00,
2013-01-11 21:35:00,33.1,31.6,30.16,SW,228,1.0,1.0,94,0.00,,,0.04,Wunderground v.1.13,2013-01-12 02:35:00,
2013-01-11 21:40:00,33.1,31.6,30.16,NW,308,1.0,1.0,94,0.00,,,0.04,Wunderground v.1.13,2013-01-12 02:40:00,
2013-01-11 21:45:00,33.5,32.0,30.18,North,-999,0.0,0.0,94,0.02,,,-99.99,WeatherLink 6.0.2,2013-01-12 02:45:00,
2013-01-11 21:50:00,33.2,31.7,30.17,ESE,121,1.0,1.0,94,0.00,,,0.04,Wunderground v.1.13,2013-01-12 02:50:00,
2013-01-11 21:55:00,33.4,31.9,30.17,South,171,1.0,1.0,94,0.00,,,0.04,Wunderground v.1.13,2013-01-12 02:55:00,
2013-01-11 22:00:00,33.3,31.8,30.18,North,-999,0.0,0.0,94,0.02,,,-99.99,WeatherLink 6.0.2,2013-01-12 03:00:00,
2013-01-11 22:05:00,33.5,32.0,30.18,SSW,198,0.0,0.0,94,0.00,,,0.04,Wunderground v.1.13,2013-01-12 03:05:00,
2013-01-11 22:10:00,33.5,32.0,30.18,SSW,199,1.0,1.0,94,0.00,,,0.04,Wunderground v.1.13,2013-01-12 03:10:00,
2013-01-11 22:15:00,33.1,31.6,30.17,North,-999,0.0,0.0,94,0.02,,,-99.99,WeatherLink 6.0.2,2013-01-12 03:15:00,
2013-01-11 22:20:00,33.7,32.2,30.18,SSW,199,1.0,1.0,94,0.00,,,0.05,Wunderground v.1.13,2013-01-12 03:20:00,
2013-01-11 22:25:00,33.7,32.2,30.18,SSW,199,1.0,1.0,94,0.00,,,0.05,Wunderground v.1.13,2013-01-12 03:25:00,
2013-01-11 22:30:00,33.7,32.2,30.18,SSW,199,0.0,0.0,94,0.00,,,0.05,Wunderground v.1.13,2013-01-12 03:30:00,
2013-01-11 22:35:00,33.5,32.0,30.18,SSW,199,0.0,0.0,94,0.00,,,0.05,Wunderground v.1.13,2013-01-12 03:35:00,
2013-01-11 22:40:00,32.8,31.5,30.17,North,-999,0.0,0.0,95,0.03,,,-99.99,WeatherLink 6.0.2,2013-01-12 03:40:00,
2013-01-11 22:45:00,33.4,31.9,30.18,SSW,199,0.0,0.0,94,0.00,,,0.06,Wunderground v.1.13,2013-01-12 03:45:00,
2013-01-11 22:50:00,33.4,31.9,30.18,SSW,199,0.0,0.0,94,0.00,,,0.06,Wunderground v.1.13,2013-01-12 03:50:00,
2013-01-11 22:55:00,33.4,31.9,30.18,SSW,199,0.0,0.0,94,0.00,,,0.06,Wunderground v.1.13,2013-01-12 03:55:00,
2013-01-11 23:00:00,33.2,31.7,30.18,SSW,199,0.0,0.0,94,0.00,,,0.06,Wunderground v.1.13,2013-01-12 04:00:00,
2013-01-11 23:05:00,33.3,32.0,30.16,SSW,202,0.0,2.0,95,0.02,,,-99.99,WeatherLink 6.0.2,2013-01-12 04:05:00,
2013-01-11 23:10:00,33.1,31.6,30.18,SSW,199,0.0,0.0,94,0.00,,,0.07,Wunderground v.1.13,2013-01-12 04:10:00,
2013-01-11 23:15:00,33.1,31.6,30.17,SSW,199,0.0,0.0,94,0.00,,,0.07,Wunderground v.1.13,2013-01-12 04:15:00,
2013-01-11 23:20:00,32.9,31.4,30.17,SSW,199,0.0,0.0,94,0.00,,,0.07,Wunderground v.1.13,2013-01-12 04:20:00,
2013-01-11 23:25:00,33.4,32.1,30.16,SSW,202,0.0,2.0,95,0.00,,,-99.99,WeatherLink 6.0.2,2013-01-12 04:25:00,
2013-01-11 23:30:00,32.9,31.6,30.17,SSW,199,0.0,0.0,95,0.04,,,0.08,Wunderground v.1.13,2013-01-12 04:30:00,
2013-01-11 23:35:00,32.9,31.6,30.17,SSW,199,0.0,0.0,95,0.04,,,0.08,Wunderground v.1.13,2013-01-12 04:35:00,
2013-01-11 23:40:00,32.8,31.5,30.17,SSW,199,0.0,0.0,95,0.04,,,0.08,Wunderground v.1.13,2013-01-12 04:40:00,
2013-01-11 23:45:00,32.8,31.5,30.16,SSW,199,0.0,0.0,95,0.00,,,0.08,Wunderground v.1.13,2013-01-12 04:45:00,
2013-01-11 23:50:00,32.9,31.6,30.16,SSW,199,0.0,0.0,95,0.00,,,0.08,Wunderground v.1.13,2013-01-12 04:50:00,
2013-01-11 23:55:00,33.5,32.2,30.15,SE,135,0.0,1.0,95,0.00,,,-99.99,WeatherLink 6.0.2,2013-01-12 04:55:00,